sensor_id;sensor_type;location;lat;lon;timestamp;pressure;altitude;pressure_sealevel;temperature;humidity
73594;BME280;62064;53.406;23.500;2022-08-18T00:00:04;99429.59;;;22.46;65.19
73594;BME280;62064;53.406;23.500;2022-08-18T00:02:51;99437.53;;;22.47;65.49
73594;BME280;62064;53.406;23.500;2022-08-18T00:05:20;99434.00;;;22.42;65.87
73594;BME280;62064;53.406;23.500;2022-08-18T00:07:46;99432.09;;;22.42;65.79
73594;BME280;62064;53.406;23.500;2022-08-18T00:10:12;99415.50;;;22.29;66.35
73594;BME280;62064;53.406;23.500;2022-08-18T00:12:40;99440.03;;;22.34;66.11
73594;BME280;62064;53.406;23.500;2022-08-18T00:15:12;99446.38;;;22.29;66.68
73594;BME280;62064;53.406;23.500;2022-08-18T00:17:40;99451.03;;;22.24;66.74
73594;BME280;62064;53.406;23.500;2022-08-18T00:20:10;99462.22;;;22.22;66.66
73594;BME280;62064;53.406;23.500;2022-08-18T00:22:37;99454.06;;;22.12;67.17
73594;BME280;62064;53.406;23.500;2022-08-18T00:25:06;99467.72;;;22.12;67.24
73594;BME280;62064;53.406;23.500;2022-08-18T00:27:35;99463.09;;;22.08;67.44
73594;BME280;62064;53.406;23.500;2022-08-18T00:30:09;99468.00;;;22.06;67.14
73594;BME280;62064;53.406;23.500;2022-08-18T00:32:39;99463.94;;;22.03;67.33
73594;BME280;62064;53.406;23.500;2022-08-18T00:35:09;99466.91;;;22.01;67.17
73594;BME280;62064;53.406;23.500;2022-08-18T00:37:39;99465.06;;;21.97;67.43
73594;BME280;62064;53.406;23.500;2022-08-18T00:40:07;99462.56;;;21.90;67.25
73594;BME280;62064;53.406;23.500;2022-08-18T00:42:49;99453.84;;;21.88;67.01
73594;BME280;62064;53.406;23.500;2022-08-18T00:45:18;99452.22;;;21.87;67.48
73594;BME280;62064;53.406;23.500;2022-08-18T00:47:45;99451.38;;;21.87;67.05
73594;BME280;62064;53.406;23.500;2022-08-18T00:50:39;99457.66;;;21.82;67.52
73594;BME280;62064;53.406;23.500;2022-08-18T00:53:16;99450.31;;;21.78;66.91
73594;BME280;62064;53.406;23.500;2022-08-18T00:55:43;99440.25;;;21.73;66.88
73594;BME280;62064;53.406;23.500;2022-08-18T00:58:35;99446.22;;;21.75;67.05
73594;BME280;62064;53.406;23.500;2022-08-18T01:01:05;99444.06;;;21.72;67.17
73594;BME280;62064;53.406;23.500;2022-08-18T01:03:34;99439.44;;;21.68;67.61
73594;BME280;62064;53.406;23.500;2022-08-18T01:06:23;99426.91;;;21.57;67.16
73594;BME280;62064;53.406;23.500;2022-08-18T01:08:53;99427.19;;;21.55;67.47
73594;BME280;62064;53.406;23.500;2022-08-18T01:11:21;99423.34;;;21.51;67.41
73594;BME280;62064;53.406;23.500;2022-08-18T01:13:47;99434.28;;;21.51;67.68
73594;BME280;62064;53.406;23.500;2022-08-18T01:16:16;99418.75;;;21.41;67.64
73594;BME280;62064;53.406;23.500;2022-08-18T01:19:01;99422.00;;;21.43;67.78
73594;BME280;62064;53.406;23.500;2022-08-18T01:21:49;99420.94;;;21.39;68.31
73594;BME280;62064;53.406;23.500;2022-08-18T01:24:17;99420.41;;;21.37;67.97
73594;BME280;62064;53.406;23.500;2022-08-18T01:26:44;99411.97;;;21.34;68.36
73594;BME280;62064;53.406;23.500;2022-08-18T01:29:18;99403.50;;;21.25;67.92
73594;BME280;62064;53.406;23.500;2022-08-18T01:31:49;99425.03;;;21.32;68.46
73594;BME280;62064;53.406;23.500;2022-08-18T01:34:21;99420.13;;;21.29;68.62
73594;BME280;62064;53.406;23.500;2022-08-18T01:36:50;99417.97;;;21.26;67.94
73594;BME280;62064;53.406;23.500;2022-08-18T01:39:21;99420.13;;;21.24;68.00
73594;BME280;62064;53.406;23.500;2022-08-18T01:41:47;99412.50;;;21.21;67.81
73594;BME280;62064;53.406;23.500;2022-08-18T01:44:14;99420.38;;;21.22;68.41
73594;BME280;62064;53.406;23.500;2022-08-18T01:46:40;99412.22;;;21.17;68.25
73594;BME280;62064;53.406;23.500;2022-08-18T01:49:08;99414.69;;;21.14;67.91
73594;BME280;62064;53.406;23.500;2022-08-18T01:51:35;99422.31;;;21.12;68.33
73594;BME280;62064;53.406;23.500;2022-08-18T01:54:03;99422.28;;;21.06;68.61
73594;BME280;62064;53.406;23.500;2022-08-18T01:56:30;99414.63;;;20.98;68.62
73594;BME280;62064;53.406;23.500;2022-08-18T01:58:57;99433.47;;;21.05;68.68
73594;BME280;62064;53.406;23.500;2022-08-18T02:01:26;99441.06;;;21.03;68.85
73594;BME280;62064;53.406;23.500;2022-08-18T02:03:55;99438.66;;;21.01;69.16
73594;BME280;62064;53.406;23.500;2022-08-18T02:06:25;99449.00;;;21.04;69.06
73594;BME280;62064;53.406;23.500;2022-08-18T02:08:51;99450.06;;;21.03;68.52
73594;BME280;62064;53.406;23.500;2022-08-18T02:11:17;99442.19;;;21.02;68.46
73594;BME280;62064;53.406;23.500;2022-08-18T02:13:43;99431.53;;;20.95;68.76
73594;BME280;62064;53.406;23.500;2022-08-18T02:16:10;99432.38;;;21.01;68.95
73594;BME280;62064;53.406;23.500;2022-08-18T02:18:36;99427.47;;;20.98;68.44
73594;BME280;62064;53.406;23.500;2022-08-18T02:21:10;99429.38;;;20.97;69.10
73594;BME280;62064;53.406;23.500;2022-08-18T02:23:39;99436.72;;;20.97;68.94
73594;BME280;62064;53.406;23.500;2022-08-18T02:26:11;99427.44;;;20.88;69.25
73594;BME280;62064;53.406;23.500;2022-08-18T02:28:40;99438.34;;;20.93;68.74
73594;BME280;62064;53.406;23.500;2022-08-18T02:31:09;99426.09;;;20.85;68.63
73594;BME280;62064;53.406;23.500;2022-08-18T02:33:36;99420.88;;;20.79;69.09
73594;BME280;62064;53.406;23.500;2022-08-18T02:36:03;99438.59;;;20.86;69.13
73594;BME280;62064;53.406;23.500;2022-08-18T02:38:29;99433.16;;;20.86;69.31
73594;BME280;62064;53.406;23.500;2022-08-18T02:40:57;99433.44;;;20.85;69.28
73594;BME280;62064;53.406;23.500;2022-08-18T02:43:23;99423.63;;;20.84;69.11
73594;BME280;62064;53.406;23.500;2022-08-18T02:45:49;99425.81;;;20.82;68.81
73594;BME280;62064;53.406;23.500;2022-08-18T02:48:16;99419.28;;;20.78;69.05
73594;BME280;62064;53.406;23.500;2022-08-18T02:50:46;99418.44;;;20.77;68.97
73594;BME280;62064;53.406;23.500;2022-08-18T02:53:13;99428.81;;;20.80;68.80
73594;BME280;62064;53.406;23.500;2022-08-18T02:55:47;99427.16;;;20.79;69.40
73594;BME280;62064;53.406;23.500;2022-08-18T02:58:14;99431.25;;;20.77;68.97
73594;BME280;62064;53.406;23.500;2022-08-18T03:00:40;99440.25;;;20.77;69.04
73594;BME280;62064;53.406;23.500;2022-08-18T03:03:07;99438.88;;;20.70;69.12
73594;BME280;62064;53.406;23.500;2022-08-18T03:05:33;99448.41;;;20.72;68.94
73594;BME280;62064;53.406;23.500;2022-08-18T03:07:59;99433.94;;;20.67;68.91
73594;BME280;62064;53.406;23.500;2022-08-18T03:10:26;99459.03;;;20.74;69.18
73594;BME280;62064;53.406;23.500;2022-08-18T03:12:53;99465.84;;;20.76;68.96
73594;BME280;62064;53.406;23.500;2022-08-18T03:15:21;99457.13;;;20.74;68.96
73594;BME280;62064;53.406;23.500;2022-08-18T03:17:48;99452.75;;;20.68;68.75
73594;BME280;62064;53.406;23.500;2022-08-18T03:20:16;99466.41;;;20.73;68.95
73594;BME280;62064;53.406;23.500;2022-08-18T03:22:42;99455.19;;;20.65;69.10
73594;BME280;62064;53.406;23.500;2022-08-18T03:25:08;99456.56;;;20.67;69.73
73594;BME280;62064;53.406;23.500;2022-08-18T03:27:34;99469.09;;;20.68;69.31
73594;BME280;62064;53.406;23.500;2022-08-18T03:30:00;99470.19;;;20.67;69.32
73594;BME280;62064;53.406;23.500;2022-08-18T03:32:28;99466.38;;;20.68;69.52
73594;BME280;62064;53.406;23.500;2022-08-18T03:34:55;99463.66;;;20.68;69.09
73594;BME280;62064;53.406;23.500;2022-08-18T03:37:21;99468.56;;;20.66;69.00
73594;BME280;62064;53.406;23.500;2022-08-18T03:39:48;99459.28;;;20.67;69.54
73594;BME280;62064;53.406;23.500;2022-08-18T03:42:17;99454.63;;;20.62;69.34
73594;BME280;62064;53.406;23.500;2022-08-18T03:44:43;99462.56;;;20.69;69.33
73594;BME280;62064;53.406;23.500;2022-08-18T03:47:10;99450.84;;;20.63;69.57
73594;BME280;62064;53.406;23.500;2022-08-18T03:49:37;99459.03;;;20.69;69.71
73594;BME280;62064;53.406;23.500;2022-08-18T03:52:07;99463.91;;;20.61;69.54
73594;BME280;62064;53.406;23.500;2022-08-18T03:54:33;99475.13;;;20.70;69.04
73594;BME280;62064;53.406;23.500;2022-08-18T03:57:00;99470.19;;;20.67;69.13
73594;BME280;62064;53.406;23.500;2022-08-18T03:59:27;99459.28;;;20.62;69.46
73594;BME280;62064;53.406;23.500;2022-08-18T04:01:53;99476.72;;;20.71;69.57
73594;BME280;62064;53.406;23.500;2022-08-18T04:04:26;99474.00;;;20.61;69.49
73594;BME280;62064;53.406;23.500;2022-08-18T04:06:58;99489.00;;;20.69;69.41
73594;BME280;62064;53.406;23.500;2022-08-18T04:09:28;99490.91;;;20.73;69.27
73594;BME280;62064;53.406;23.500;2022-08-18T04:11:55;99485.72;;;20.72;69.21
73594;BME280;62064;53.406;23.500;2022-08-18T04:14:23;99492.28;;;20.76;69.64
73594;BME280;62064;53.406;23.500;2022-08-18T04:16:50;99482.19;;;20.76;69.59
73594;BME280;62064;53.406;23.500;2022-08-18T04:19:17;99496.91;;;20.80;69.98
73594;BME280;62064;53.406;23.500;2022-08-18T04:21:45;99478.91;;;20.74;69.75
73594;BME280;62064;53.406;23.500;2022-08-18T04:24:14;99486.56;;;20.82;69.34
73594;BME280;62064;53.406;23.500;2022-08-18T04:26:43;99493.09;;;20.86;69.41
73594;BME280;62064;53.406;23.500;2022-08-18T04:29:15;99493.09;;;20.86;69.56
73594;BME280;62064;53.406;23.500;2022-08-18T04:31:43;99492.03;;;20.92;69.75
73594;BME280;62064;53.406;23.500;2022-08-18T04:34:10;99487.13;;;20.94;69.20
73594;BME280;62064;53.406;23.500;2022-08-18T04:36:37;99492.88;;;20.93;69.42
73594;BME280;62064;53.406;23.500;2022-08-18T04:39:05;99491.22;;;20.97;69.60
73594;BME280;62064;53.406;23.500;2022-08-18T04:41:33;99493.13;;;20.96;69.11
73594;BME280;62064;53.406;23.500;2022-08-18T04:44:02;99495.06;;;21.01;68.96
73594;BME280;62064;53.406;23.500;2022-08-18T04:46:32;99496.69;;;21.07;68.97
73594;BME280;62064;53.406;23.500;2022-08-18T04:49:00;99503.22;;;21.11;69.13
73594;BME280;62064;53.406;23.500;2022-08-18T04:51:28;99501.34;;;21.12;69.15
73594;BME280;62064;53.406;23.500;2022-08-18T04:53:56;99497.56;;;21.13;69.06
73594;BME280;62064;53.406;23.500;2022-08-18T04:56:23;99498.34;;;21.18;69.08
73594;BME280;62064;53.406;23.500;2022-08-18T04:59:11;99501.09;;;21.23;68.96
73594;BME280;62064;53.406;23.500;2022-08-18T05:01:41;99502.47;;;21.26;68.77
73594;BME280;62064;53.406;23.500;2022-08-18T05:04:10;99506.84;;;21.32;69.27
73594;BME280;62064;53.406;23.500;2022-08-18T05:06:39;99507.09;;;21.35;68.71
73594;BME280;62064;53.406;23.500;2022-08-18T05:09:08;99505.47;;;21.39;68.85
73594;BME280;62064;53.406;23.500;2022-08-18T05:11:37;99513.09;;;21.42;68.34
73594;BME280;62064;53.406;23.500;2022-08-18T05:14:05;99500.84;;;21.40;68.46
73594;BME280;62064;53.406;23.500;2022-08-18T05:16:33;99507.38;;;21.49;68.47
73594;BME280;62064;53.406;23.500;2022-08-18T05:19:06;99499.19;;;21.44;68.39
73594;BME280;62064;53.406;23.500;2022-08-18T05:21:34;99501.38;;;21.52;68.19
73594;BME280;62064;53.406;23.500;2022-08-18T05:24:02;99505.47;;;21.54;68.13
73594;BME280;62064;53.406;23.500;2022-08-18T05:26:29;99506.84;;;21.57;68.10
73594;BME280;62064;53.406;23.500;2022-08-18T05:28:57;99510.09;;;21.59;68.13
73594;BME280;62064;53.406;23.500;2022-08-18T05:31:24;99509.00;;;21.65;67.74
73594;BME280;62064;53.406;23.500;2022-08-18T05:33:51;99505.47;;;21.65;68.37
73594;BME280;62064;53.406;23.500;2022-08-18T05:41:36;99506.53;;;21.79;67.98
73594;BME280;62064;53.406;23.500;2022-08-18T05:44:05;99525.38;;;21.85;67.76
73594;BME280;62064;53.406;23.500;2022-08-18T05:46:45;99526.44;;;21.89;67.45
73594;BME280;62064;53.406;23.500;2022-08-18T05:49:13;99527.00;;;21.91;67.36
73594;BME280;62064;53.406;23.500;2022-08-18T05:51:45;99527.28;;;21.95;67.51
73594;BME280;62064;53.406;23.500;2022-08-18T05:54:13;99513.38;;;21.91;67.68
73594;BME280;62064;53.406;23.500;2022-08-18T05:57:04;99527.53;;;22.04;67.44
73594;BME280;62064;53.406;23.500;2022-08-18T05:59:37;99521.53;;;22.01;67.38
73594;BME280;62064;53.406;23.500;2022-08-18T06:04:51;99539.25;;;22.14;67.82
73594;BME280;62064;53.406;23.500;2022-08-18T06:07:40;99539.50;;;22.18;67.78
73594;BME280;62064;53.406;23.500;2022-08-18T06:10:09;99529.97;;;22.15;67.83
73594;BME280;62064;53.406;23.500;2022-08-18T06:23:45;99538.34;;;22.44;68.86
73594;BME280;62064;53.406;23.500;2022-08-18T06:26:22;99530.72;;;22.41;68.33
73594;BME280;62064;53.406;23.500;2022-08-18T06:31:47;99545.41;;;22.55;68.60
73594;BME280;62064;53.406;23.500;2022-08-18T06:37:05;99550.59;;;22.57;68.73
73594;BME280;62064;53.406;23.500;2022-08-18T06:39:46;99553.28;;;22.62;68.52
73594;BME280;62064;53.406;23.500;2022-08-18T06:42:20;99552.75;;;22.65;69.41
73594;BME280;62064;53.406;23.500;2022-08-18T06:47:36;99566.13;;;22.76;68.82
73594;BME280;62064;53.406;23.500;2022-08-18T06:50:23;99557.91;;;22.76;69.04
73594;BME280;62064;53.406;23.500;2022-08-18T06:52:59;99564.41;;;22.85;68.50
73594;BME280;62064;53.406;23.500;2022-08-18T06:55:38;99552.69;;;22.85;69.08
73594;BME280;62064;53.406;23.500;2022-08-18T06:58:21;99551.81;;;22.94;69.43
73594;BME280;62064;53.406;23.500;2022-08-18T07:03:18;99555.00;;;23.12;68.24
73594;BME280;62064;53.406;23.500;2022-08-18T07:09:35;99559.53;;;23.26;67.74
73594;BME280;62064;53.406;23.500;2022-08-18T07:11:57;99562.75;;;23.33;67.83
73594;BME280;62064;53.406;23.500;2022-08-18T07:14:24;99554.25;;;23.40;67.45
73594;BME280;62064;53.406;23.500;2022-08-18T07:17:13;99561.91;;;23.43;67.14
73594;BME280;62064;53.406;23.500;2022-08-18T07:20:18;99563.25;;;23.46;66.42
73594;BME280;62064;53.406;23.500;2022-08-18T07:23:04;99553.94;;;23.47;66.49
73594;BME280;62064;53.406;23.500;2022-08-18T07:25:42;99563.47;;;23.54;66.54
73594;BME280;62064;53.406;23.500;2022-08-18T07:28:33;99565.63;;;23.57;65.83
73594;BME280;62064;53.406;23.500;2022-08-18T07:36:36;99539.84;;;23.68;65.68
73594;BME280;62064;53.406;23.500;2022-08-18T07:39:14;99552.56;;;23.83;65.73
73594;BME280;62064;53.406;23.500;2022-08-18T07:41:54;99541.13;;;23.76;65.74
73594;BME280;62064;53.406;23.500;2022-08-18T07:44:55;99540.75;;;23.88;65.47
73594;BME280;62064;53.406;23.500;2022-08-18T07:47:50;99555.38;;;24.02;64.75
73594;BME280;62064;53.406;23.500;2022-08-18T07:50:18;99527.56;;;23.90;64.07
73594;BME280;62064;53.406;23.500;2022-08-18T07:55:32;99551.75;;;24.11;63.33
73594;BME280;62064;53.406;23.500;2022-08-18T08:03:46;99554.56;;;24.30;63.70
73594;BME280;62064;53.406;23.500;2022-08-18T08:06:31;99550.41;;;24.32;63.50
73594;BME280;62064;53.406;23.500;2022-08-18T08:11:57;99564.25;;;24.46;61.97
73594;BME280;62064;53.406;23.500;2022-08-18T08:14:41;99557.91;;;24.51;62.09
73594;BME280;62064;53.406;23.500;2022-08-18T08:23:05;99570.00;;;24.68;60.66
73594;BME280;62064;53.406;23.500;2022-08-18T08:34:19;99569.28;;;24.87;60.84
73594;BME280;62064;53.406;23.500;2022-08-18T08:37:03;99573.06;;;24.91;60.14
73594;BME280;62064;53.406;23.500;2022-08-18T08:39:45;99567.19;;;24.97;60.52
73594;BME280;62064;53.406;23.500;2022-08-18T08:44:55;99567.34;;;25.06;59.79
73594;BME280;62064;53.406;23.500;2022-08-18T08:47:29;99565.06;;;25.13;59.64
73594;BME280;62064;53.406;23.500;2022-08-18T08:50:06;99573.75;;;25.20;59.97
73594;BME280;62064;53.406;23.500;2022-08-18T08:52:43;99565.59;;;25.15;59.52
73594;BME280;62064;53.406;23.500;2022-08-18T08:55:23;99569.06;;;25.20;59.54
73594;BME280;62064;53.406;23.500;2022-08-18T08:58:06;99574.03;;;25.18;60.20
73594;BME280;62064;53.406;23.500;2022-08-18T09:00:42;99573.00;;;25.14;59.95
73594;BME280;62064;53.406;23.500;2022-08-18T09:06:02;99576.63;;;25.10;61.81
73594;BME280;62064;53.406;23.500;2022-08-18T09:09:03;99567.91;;;25.08;61.89
73594;BME280;62064;53.406;23.500;2022-08-18T09:14:24;99580.25;;;25.05;61.56
73594;BME280;62064;53.406;23.500;2022-08-18T09:19:55;99572.84;;;25.06;62.13
73594;BME280;62064;53.406;23.500;2022-08-18T09:24:55;99569.59;;;25.04;62.23
73594;BME280;62064;53.406;23.500;2022-08-18T09:27:36;99572.34;;;25.04;62.78
73594;BME280;62064;53.406;23.500;2022-08-18T09:30:08;99575.59;;;25.06;62.13
73594;BME280;62064;53.406;23.500;2022-08-18T09:38:32;99567.34;;;25.06;62.44
73594;BME280;62064;53.406;23.500;2022-08-18T09:41:58;99561.94;;;25.01;62.68
73594;BME280;62064;53.406;23.500;2022-08-18T09:49:58;99559.13;;;25.06;63.49
73594;BME280;62064;53.406;23.500;2022-08-18T09:57:43;99556.09;;;25.07;63.75
73594;BME280;62064;53.406;23.500;2022-08-18T10:13:35;99548.03;;;25.16;64.40
73594;BME280;62064;53.406;23.500;2022-08-18T10:21:25;99566.91;;;25.17;64.69
73594;BME280;62064;53.406;23.500;2022-08-18T10:23:57;99554.03;;;25.18;64.78
73594;BME280;62064;53.406;23.500;2022-08-18T10:29:03;99548.25;;;25.19;64.53
73594;BME280;62064;53.406;23.500;2022-08-18T10:34:42;99544.09;;;25.22;64.82
73594;BME280;62064;53.406;23.500;2022-08-18T10:37:17;99549.28;;;25.23;64.84
73594;BME280;62064;53.406;23.500;2022-08-18T10:39:47;99546.53;;;25.23;64.59
73594;BME280;62064;53.406;23.500;2022-08-18T10:42:47;99536.44;;;25.19;64.93
73594;BME280;62064;53.406;23.500;2022-08-18T10:51:19;99552.31;;;25.22;65.59
73594;BME280;62064;53.406;23.500;2022-08-18T10:53:55;99560.97;;;25.29;65.35
73594;BME280;62064;53.406;23.500;2022-08-18T10:56:40;99546.81;;;25.22;65.57
73594;BME280;62064;53.406;23.500;2022-08-18T11:04:50;99560.69;;;25.31;65.10
73594;BME280;62064;53.406;23.500;2022-08-18T11:07:20;99555.28;;;25.25;65.21
73594;BME280;62064;53.406;23.500;2022-08-18T11:09:51;99558.78;;;25.31;65.41
73594;BME280;62064;53.406;23.500;2022-08-18T11:12:48;99557.63;;;25.32;65.38
73594;BME280;62064;53.406;23.500;2022-08-18T11:15:25;99565.59;;;25.34;65.22
73594;BME280;62064;53.406;23.500;2022-08-18T11:20:31;99565.31;;;25.35;66.01
73594;BME280;62064;53.406;23.500;2022-08-18T11:23:01;99553.78;;;25.33;65.80
73594;BME280;62064;53.406;23.500;2022-08-18T11:25:32;99557.88;;;25.36;65.35
73594;BME280;62064;53.406;23.500;2022-08-18T11:27:59;99557.88;;;25.36;65.66
73594;BME280;62064;53.406;23.500;2022-08-18T11:30:29;99556.47;;;25.38;65.75
73594;BME280;62064;53.406;23.500;2022-08-18T11:32:57;99552.63;;;25.39;65.00
73594;BME280;62064;53.406;23.500;2022-08-18T11:35:44;99551.78;;;25.39;65.68
73594;BME280;62064;53.406;23.500;2022-08-18T11:38:14;99557.56;;;25.37;65.86
73594;BME280;62064;53.406;23.500;2022-08-18T11:40:44;99561.13;;;25.38;65.51
73594;BME280;62064;53.406;23.500;2022-08-18T11:43:19;99566.22;;;25.44;65.02
73594;BME280;62064;53.406;23.500;2022-08-18T11:45:54;99555.66;;;25.38;65.15
73594;BME280;62064;53.406;23.500;2022-08-18T12:01:09;99556.00;;;25.50;65.50
73594;BME280;62064;53.406;23.500;2022-08-18T12:03:37;99554.59;;;25.52;65.37
73594;BME280;62064;53.406;23.500;2022-08-18T12:06:28;99536.16;;;25.39;65.62
73594;BME280;62064;53.406;23.500;2022-08-18T12:09:14;99560.91;;;25.53;64.95
73594;BME280;62064;53.406;23.500;2022-08-18T12:17:18;99552.97;;;25.51;65.58
73594;BME280;62064;53.406;23.500;2022-08-18T12:19:44;99545.03;;;25.50;66.03
73594;BME280;62064;53.406;23.500;2022-08-18T12:22:20;99536.50;;;25.51;65.75
73594;BME280;62064;53.406;23.500;2022-08-18T12:24:47;99549.88;;;25.58;65.86
73594;BME280;62064;53.406;23.500;2022-08-18T12:27:15;99545.28;;;25.53;65.46
73594;BME280;62064;53.406;23.500;2022-08-18T12:29:42;99545.56;;;25.52;65.12
73594;BME280;62064;53.406;23.500;2022-08-18T12:32:09;99540.06;;;25.52;65.27
73594;BME280;62064;53.406;23.500;2022-08-18T12:34:36;99542.22;;;25.55;65.31
73594;BME280;62064;53.406;23.500;2022-08-18T12:37:07;99549.88;;;25.58;65.18
73594;BME280;62064;53.406;23.500;2022-08-18T12:39:36;99542.94;;;25.60;65.48
73594;BME280;62064;53.406;23.500;2022-08-18T12:42:04;99545.41;;;25.62;65.39
73594;BME280;62064;53.406;23.500;2022-08-18T12:44:30;99536.88;;;25.63;65.36
73594;BME280;62064;53.406;23.500;2022-08-18T12:46:57;99537.38;;;25.65;65.38
73594;BME280;62064;53.406;23.500;2022-08-18T12:49:25;99524.25;;;25.62;65.16
73594;BME280;62064;53.406;23.500;2022-08-18T12:51:51;99533.22;;;25.68;64.77
73594;BME280;62064;53.406;23.500;2022-08-18T12:54:22;99531.88;;;25.65;64.90
73594;BME280;62064;53.406;23.500;2022-08-18T12:56:54;99530.69;;;25.72;64.84
73594;BME280;62064;53.406;23.500;2022-08-18T12:59:20;99518.38;;;25.69;64.71
73594;BME280;62064;53.406;23.500;2022-08-18T13:01:48;99520.81;;;25.70;64.52
73594;BME280;62064;53.406;23.500;2022-08-18T13:04:16;99517.56;;;25.68;64.63
73594;BME280;62064;53.406;23.500;2022-08-18T13:06:51;99527.03;;;25.76;64.71
73594;BME280;62064;53.406;23.500;2022-08-18T13:09:20;99524.28;;;25.76;65.34
73594;BME280;62064;53.406;23.500;2022-08-18T13:11:47;99506.00;;;25.72;65.38
73594;BME280;62064;53.406;23.500;2022-08-18T13:14:16;99512.78;;;25.74;64.63
73594;BME280;62064;53.406;23.500;2022-08-18T13:16:44;99521.53;;;25.76;64.74
73594;BME280;62064;53.406;23.500;2022-08-18T13:19:12;99513.00;;;25.78;65.23
73594;BME280;62064;53.406;23.500;2022-08-18T13:21:42;99514.94;;;25.77;65.02
73594;BME280;62064;53.406;23.500;2022-08-18T13:24:09;99512.72;;;25.79;65.63
73594;BME280;62064;53.406;23.500;2022-08-18T13:26:41;99503.66;;;25.79;64.89
73594;BME280;62064;53.406;23.500;2022-08-18T13:29:10;99504.16;;;25.81;64.24
73594;BME280;62064;53.406;23.500;2022-08-18T13:31:39;99504.69;;;25.83;64.21
73594;BME280;62064;53.406;23.500;2022-08-18T13:34:10;99497.06;;;25.80;64.85
73594;BME280;62064;53.406;23.500;2022-08-18T13:37:09;99508.25;;;25.83;64.87
73594;BME280;62064;53.406;23.500;2022-08-18T13:39:37;99492.34;;;25.80;64.51
73594;BME280;62064;53.406;23.500;2022-08-18T13:42:03;99493.16;;;25.81;64.74
73594;BME280;62064;53.406;23.500;2022-08-18T13:44:34;99502.75;;;25.83;64.01
73594;BME280;62064;53.406;23.500;2022-08-18T13:47:03;99499.41;;;25.86;64.02
73594;BME280;62064;53.406;23.500;2022-08-18T13:49:34;99487.38;;;25.82;63.57
73594;BME280;62064;53.406;23.500;2022-08-18T13:52:02;99494.41;;;25.88;64.06
73594;BME280;62064;53.406;23.500;2022-08-18T13:54:39;99492.59;;;25.84;64.42
73594;BME280;62064;53.406;23.500;2022-08-18T13:57:07;99496.66;;;25.86;63.92
73594;BME280;62064;53.406;23.500;2022-08-18T13:59:35;99502.34;;;25.90;64.06
73594;BME280;62064;53.406;23.500;2022-08-18T14:02:10;99503.16;;;25.90;64.27
73594;BME280;62064;53.406;23.500;2022-08-18T14:04:39;99500.41;;;25.90;64.27
73594;BME280;62064;53.406;23.500;2022-08-18T14:07:26;99496.84;;;25.90;64.41
73594;BME280;62064;53.406;23.500;2022-08-18T14:09:53;99502.84;;;25.92;63.53
73594;BME280;62064;53.406;23.500;2022-08-18T14:12:21;99486.97;;;25.89;63.50
73594;BME280;62064;53.406;23.500;2022-08-18T14:14:52;99493.63;;;25.88;63.57
73594;BME280;62064;53.406;23.500;2022-08-18T14:17:20;99497.88;;;25.94;63.62
73594;BME280;62064;53.406;23.500;2022-08-18T14:19:47;99486.16;;;25.88;63.60
73594;BME280;62064;53.406;23.500;2022-08-18T14:22:33;99500.63;;;25.94;63.46
73594;BME280;62064;53.406;23.500;2022-08-18T14:25:20;99496.25;;;25.93;63.52
73594;BME280;62064;53.406;23.500;2022-08-18T14:28:07;99494.03;;;25.95;62.78
73594;BME280;62064;53.406;23.500;2022-08-18T14:30:35;99498.91;;;25.98;62.92
73594;BME280;62064;53.406;23.500;2022-08-18T14:33:05;99498.91;;;25.98;62.36
73594;BME280;62064;53.406;23.500;2022-08-18T14:35:33;99502.16;;;26.00;63.08
73594;BME280;62064;53.406;23.500;2022-08-18T14:38:00;99495.88;;;25.99;62.83
73594;BME280;62064;53.406;23.500;2022-08-18T14:40:30;99501.03;;;26.01;62.81
73594;BME280;62064;53.406;23.500;2022-08-18T14:43:00;99490.38;;;25.99;63.06
73594;BME280;62064;53.406;23.500;2022-08-18T14:45:27;99494.44;;;26.02;62.32
73594;BME280;62064;53.406;23.500;2022-08-18T14:47:55;99487.31;;;26.01;62.40
73594;BME280;62064;53.406;23.500;2022-08-18T14:50:23;99500.41;;;26.04;62.33
73594;BME280;62064;53.406;23.500;2022-08-18T14:52:51;99502.69;;;26.02;62.33
73594;BME280;62064;53.406;23.500;2022-08-18T14:55:18;99503.69;;;26.06;62.33
73594;BME280;62064;53.406;23.500;2022-08-18T14:57:47;99484.63;;;25.96;62.20
73594;BME280;62064;53.406;23.500;2022-08-18T15:00:17;99503.69;;;26.06;62.25
73594;BME280;62064;53.406;23.500;2022-08-18T15:02:46;99500.94;;;26.06;62.02
73594;BME280;62064;53.406;23.500;2022-08-18T15:05:15;99503.69;;;26.06;61.69
73594;BME280;62064;53.406;23.500;2022-08-18T15:07:42;99492.50;;;26.02;62.07
73594;BME280;62064;53.406;23.500;2022-08-18T15:10:12;99497.59;;;26.09;62.23
73594;BME280;62064;53.406;23.500;2022-08-18T15:12:39;99492.09;;;26.09;61.95
73594;BME280;62064;53.406;23.500;2022-08-18T15:15:09;99495.38;;;26.11;61.81
73594;BME280;62064;53.406;23.500;2022-08-18T15:17:39;99482.81;;;26.05;62.13
73594;BME280;62064;53.406;23.500;2022-08-18T15:20:08;99489.97;;;26.06;61.71
73594;BME280;62064;53.406;23.500;2022-08-18T15:22:42;99483.56;;;26.10;62.27
73594;BME280;62064;53.406;23.500;2022-08-18T15:25:27;99491.78;;;26.10;61.86
73594;BME280;62064;53.406;23.500;2022-08-18T15:28:15;99499.13;;;26.15;61.30
73594;BME280;62064;53.406;23.500;2022-08-18T15:30:46;99489.25;;;26.14;61.07
73594;BME280;62064;53.406;23.500;2022-08-18T15:33:17;99485.97;;;26.12;61.61
73594;BME280;62064;53.406;23.500;2022-08-18T15:35:45;99486.31;;;26.10;61.52
73594;BME280;62064;53.406;23.500;2022-08-18T15:38:21;99491.94;;;26.19;61.59
73594;BME280;62064;53.406;23.500;2022-08-18T15:40:57;99496.28;;;26.20;61.28
73594;BME280;62064;53.406;23.500;2022-08-18T15:43:27;99482.66;;;26.15;61.27
73594;BME280;62064;53.406;23.500;2022-08-18T15:45:54;99497.09;;;26.21;61.23